sensor_id;sensor_type;location;lat;lon;timestamp;P1;durP1;ratioP1;P2;durP2;ratioP2
54193;SDS011;40102;50.906;6.972;2024-03-22T00:01:50;18.27;;;8.60;;
54193;SDS011;40102;50.906;6.972;2024-03-22T00:04:17;19.27;;;9.63;;
54193;SDS011;40102;50.906;6.972;2024-03-22T00:06:43;21.35;;;9.50;;
54193;SDS011;40102;50.906;6.972;2024-03-22T00:09:10;19.80;;;9.52;;
54193;SDS011;40102;50.906;6.972;2024-03-22T00:11:36;21.63;;;9.27;;
54193;SDS011;40102;50.906;6.972;2024-03-22T00:14:02;20.80;;;9.27;;
54193;SDS011;40102;50.906;6.972;2024-03-22T00:16:28;19.52;;;9.55;;
54193;SDS011;40102;50.906;6.972;2024-03-22T00:18:54;20.45;;;9.60;;
54193;SDS011;40102;50.906;6.972;2024-03-22T00:21:20;20.20;;;9.48;;
54193;SDS011;40102;50.906;6.972;2024-03-22T00:23:46;18.23;;;9.43;;
54193;SDS011;40102;50.906;6.972;2024-03-22T00:26:12;17.25;;;9.13;;
54193;SDS011;40102;50.906;6.972;2024-03-22T00:28:37;17.58;;;8.48;;
54193;SDS011;40102;50.906;6.972;2024-03-22T00:31:03;20.55;;;9.40;;
54193;SDS011;40102;50.906;6.972;2024-03-22T00:33:28;17.65;;;8.90;;
54193;SDS011;40102;50.906;6.972;2024-03-22T00:35:54;21.58;;;10.05;;
54193;SDS011;40102;50.906;6.972;2024-03-22T00:38:19;19.95;;;9.93;;
54193;SDS011;40102;50.906;6.972;2024-03-22T00:40:44;21.58;;;10.48;;
54193;SDS011;40102;50.906;6.972;2024-03-22T00:43:10;19.83;;;9.48;;
54193;SDS011;40102;50.906;6.972;2024-03-22T00:45:35;20.08;;;10.32;;
54193;SDS011;40102;50.906;6.972;2024-03-22T00:48:00;18.98;;;9.05;;
54193;SDS011;40102;50.906;6.972;2024-03-22T00:50:26;17.67;;;9.95;;
54193;SDS011;40102;50.906;6.972;2024-03-22T00:52:54;20.80;;;9.50;;
54193;SDS011;40102;50.906;6.972;2024-03-22T00:55:23;16.58;;;9.23;;
54193;SDS011;40102;50.906;6.972;2024-03-22T00:57:48;16.90;;;8.52;;
54193;SDS011;40102;50.906;6.972;2024-03-22T01:00:14;19.60;;;9.00;;
54193;SDS011;40102;50.906;6.972;2024-03-22T01:02:40;16.63;;;9.23;;
54193;SDS011;40102;50.906;6.972;2024-03-22T01:05:06;16.52;;;9.60;;
54193;SDS011;40102;50.906;6.972;2024-03-22T01:07:32;22.67;;;9.57;;
54193;SDS011;40102;50.906;6.972;2024-03-22T01:09:58;16.00;;;9.00;;
54193;SDS011;40102;50.906;6.972;2024-03-22T01:12:23;21.75;;;9.45;;
54193;SDS011;40102;50.906;6.972;2024-03-22T01:14:49;14.95;;;8.65;;
54193;SDS011;40102;50.906;6.972;2024-03-22T01:17:14;18.73;;;9.05;;
54193;SDS011;40102;50.906;6.972;2024-03-22T01:19:39;17.45;;;9.35;;
54193;SDS011;40102;50.906;6.972;2024-03-22T01:22:05;15.75;;;8.30;;
54193;SDS011;40102;50.906;6.972;2024-03-22T01:24:30;17.65;;;9.10;;
54193;SDS011;40102;50.906;6.972;2024-03-22T01:26:55;17.70;;;9.32;;
54193;SDS011;40102;50.906;6.972;2024-03-22T01:29:21;15.38;;;8.73;;
54193;SDS011;40102;50.906;6.972;2024-03-22T01:31:47;17.77;;;9.38;;
54193;SDS011;40102;50.906;6.972;2024-03-22T01:34:12;18.38;;;9.07;;
54193;SDS011;40102;50.906;6.972;2024-03-22T01:36:38;18.55;;;9.23;;
54193;SDS011;40102;50.906;6.972;2024-03-22T01:39:04;18.88;;;9.40;;
54193;SDS011;40102;50.906;6.972;2024-03-22T01:41:29;15.82;;;8.40;;
54193;SDS011;40102;50.906;6.972;2024-03-22T01:43:55;14.95;;;8.00;;
54193;SDS011;40102;50.906;6.972;2024-03-22T01:46:21;15.77;;;8.57;;
54193;SDS011;40102;50.906;6.972;2024-03-22T01:48:47;15.57;;;8.52;;
54193;SDS011;40102;50.906;6.972;2024-03-22T01:51:12;15.95;;;8.20;;
54193;SDS011;40102;50.906;6.972;2024-03-22T01:53:38;17.42;;;8.18;;
54193;SDS011;40102;50.906;6.972;2024-03-22T01:56:03;12.57;;;7.55;;
54193;SDS011;40102;50.906;6.972;2024-03-22T01:58:29;15.65;;;8.48;;
54193;SDS011;40102;50.906;6.972;2024-03-22T02:00:54;15.85;;;8.70;;
54193;SDS011;40102;50.906;6.972;2024-03-22T02:03:21;17.45;;;8.30;;
54193;SDS011;40102;50.906;6.972;2024-03-22T02:05:46;13.60;;;7.97;;
54193;SDS011;40102;50.906;6.972;2024-03-22T02:08:12;13.32;;;7.50;;
54193;SDS011;40102;50.906;6.972;2024-03-22T02:10:37;11.60;;;6.72;;
54193;SDS011;40102;50.906;6.972;2024-03-22T02:13:03;10.82;;;5.82;;
54193;SDS011;40102;50.906;6.972;2024-03-22T02:15:28;10.55;;;6.65;;
54193;SDS011;40102;50.906;6.972;2024-03-22T02:17:54;13.23;;;7.05;;
54193;SDS011;40102;50.906;6.972;2024-03-22T02:20:19;13.35;;;7.07;;
54193;SDS011;40102;50.906;6.972;2024-03-22T02:22:44;11.23;;;6.55;;
54193;SDS011;40102;50.906;6.972;2024-03-22T02:25:10;16.77;;;7.22;;
54193;SDS011;40102;50.906;6.972;2024-03-22T02:27:35;13.68;;;6.75;;
54193;SDS011;40102;50.906;6.972;2024-03-22T02:30:01;13.48;;;7.30;;
54193;SDS011;40102;50.906;6.972;2024-03-22T02:32:27;14.98;;;8.40;;
54193;SDS011;40102;50.906;6.972;2024-03-22T02:34:52;13.75;;;7.32;;
54193;SDS011;40102;50.906;6.972;2024-03-22T02:37:18;12.18;;;6.65;;
54193;SDS011;40102;50.906;6.972;2024-03-22T02:39:43;13.48;;;7.53;;
54193;SDS011;40102;50.906;6.972;2024-03-22T02:42:08;16.10;;;7.47;;
54193;SDS011;40102;50.906;6.972;2024-03-22T02:44:34;15.05;;;7.97;;
54193;SDS011;40102;50.906;6.972;2024-03-22T02:47:03;13.50;;;7.40;;
54193;SDS011;40102;50.906;6.972;2024-03-22T02:49:29;15.45;;;8.13;;
54193;SDS011;40102;50.906;6.972;2024-03-22T02:51:54;13.90;;;7.82;;
54193;SDS011;40102;50.906;6.972;2024-03-22T02:54:19;12.65;;;7.45;;
54193;SDS011;40102;50.906;6.972;2024-03-22T02:56:45;18.30;;;8.38;;
54193;SDS011;40102;50.906;6.972;2024-03-22T02:59:10;15.32;;;8.50;;
54193;SDS011;40102;50.906;6.972;2024-03-22T03:01:35;13.63;;;7.25;;
54193;SDS011;40102;50.906;6.972;2024-03-22T03:04:01;14.73;;;7.53;;
54193;SDS011;40102;50.906;6.972;2024-03-22T03:06:26;14.05;;;7.10;;
54193;SDS011;40102;50.906;6.972;2024-03-22T03:08:51;12.95;;;6.72;;
54193;SDS011;40102;50.906;6.972;2024-03-22T03:11:17;13.63;;;7.80;;
54193;SDS011;40102;50.906;6.972;2024-03-22T03:13:42;13.20;;;7.30;;
54193;SDS011;40102;50.906;6.972;2024-03-22T03:16:08;14.05;;;7.05;;
54193;SDS011;40102;50.906;6.972;2024-03-22T03:18:33;14.68;;;7.72;;
54193;SDS011;40102;50.906;6.972;2024-03-22T03:20:58;13.05;;;6.75;;
54193;SDS011;40102;50.906;6.972;2024-03-22T03:23:24;13.00;;;7.15;;
54193;SDS011;40102;50.906;6.972;2024-03-22T03:25:49;11.63;;;6.80;;
54193;SDS011;40102;50.906;6.972;2024-03-22T03:28:15;14.32;;;7.13;;
54193;SDS011;40102;50.906;6.972;2024-03-22T03:30:40;14.32;;;7.85;;
54193;SDS011;40102;50.906;6.972;2024-03-22T03:33:05;15.43;;;7.45;;
54193;SDS011;40102;50.906;6.972;2024-03-22T03:35:31;12.35;;;6.43;;
54193;SDS011;40102;50.906;6.972;2024-03-22T03:37:56;14.18;;;7.50;;
54193;SDS011;40102;50.906;6.972;2024-03-22T03:40:22;11.43;;;7.05;;
54193;SDS011;40102;50.906;6.972;2024-03-22T03:42:49;13.05;;;7.47;;
54193;SDS011;40102;50.906;6.972;2024-03-22T03:45:15;13.05;;;7.53;;
54193;SDS011;40102;50.906;6.972;2024-03-22T03:47:41;13.80;;;7.53;;
54193;SDS011;40102;50.906;6.972;2024-03-22T03:50:06;13.65;;;7.47;;
54193;SDS011;40102;50.906;6.972;2024-03-22T03:52:33;13.20;;;7.43;;
54193;SDS011;40102;50.906;6.972;2024-03-22T03:54:58;12.95;;;7.15;;
54193;SDS011;40102;50.906;6.972;2024-03-22T03:57:23;15.45;;;7.72;;
54193;SDS011;40102;50.906;6.972;2024-03-22T03:59:49;13.73;;;7.25;;
54193;SDS011;40102;50.906;6.972;2024-03-22T04:02:14;13.48;;;7.32;;
54193;SDS011;40102;50.906;6.972;2024-03-22T04:04:40;13.32;;;7.15;;
54193;SDS011;40102;50.906;6.972;2024-03-22T04:07:05;15.88;;;7.78;;
54193;SDS011;40102;50.906;6.972;2024-03-22T04:09:30;14.75;;;7.35;;
54193;SDS011;40102;50.906;6.972;2024-03-22T04:11:56;15.38;;;7.97;;
54193;SDS011;40102;50.906;6.972;2024-03-22T04:14:24;15.85;;;7.97;;
54193;SDS011;40102;50.906;6.972;2024-03-22T04:16:50;15.38;;;7.43;;
54193;SDS011;40102;50.906;6.972;2024-03-22T04:19:15;14.10;;;7.63;;
54193;SDS011;40102;50.906;6.972;2024-03-22T04:21:40;14.38;;;7.38;;
54193;SDS011;40102;50.906;6.972;2024-03-22T04:24:06;14.07;;;7.35;;
54193;SDS011;40102;50.906;6.972;2024-03-22T04:26:31;12.90;;;6.72;;
54193;SDS011;40102;50.906;6.972;2024-03-22T04:28:56;14.30;;;6.90;;
54193;SDS011;40102;50.906;6.972;2024-03-22T04:31:22;11.73;;;6.72;;
54193;SDS011;40102;50.906;6.972;2024-03-22T04:33:48;12.93;;;6.75;;
54193;SDS011;40102;50.906;6.972;2024-03-22T04:36:14;11.90;;;6.05;;
54193;SDS011;40102;50.906;6.972;2024-03-22T04:38:40;11.02;;;5.10;;
54193;SDS011;40102;50.906;6.972;2024-03-22T04:41:05;10.43;;;5.10;;
54193;SDS011;40102;50.906;6.972;2024-03-22T04:43:31;9.35;;;5.43;;
54193;SDS011;40102;50.906;6.972;2024-03-22T04:45:56;8.88;;;4.95;;
54193;SDS011;40102;50.906;6.972;2024-03-22T04:48:22;7.75;;;4.55;;
54193;SDS011;40102;50.906;6.972;2024-03-22T04:50:49;10.70;;;4.95;;
54193;SDS011;40102;50.906;6.972;2024-03-22T04:53:21;11.15;;;5.60;;
54193;SDS011;40102;50.906;6.972;2024-03-22T04:55:47;8.57;;;5.22;;
54193;SDS011;40102;50.906;6.972;2024-03-22T04:58:17;12.93;;;6.70;;
54193;SDS011;40102;50.906;6.972;2024-03-22T05:00:44;13.38;;;6.90;;
54193;SDS011;40102;50.906;6.972;2024-03-22T05:03:10;12.35;;;6.68;;
54193;SDS011;40102;50.906;6.972;2024-03-22T05:05:36;13.50;;;6.60;;
54193;SDS011;40102;50.906;6.972;2024-03-22T05:08:05;13.02;;;6.50;;
54193;SDS011;40102;50.906;6.972;2024-03-22T05:10:32;11.35;;;6.30;;
54193;SDS011;40102;50.906;6.972;2024-03-22T05:12:57;12.00;;;6.40;;
54193;SDS011;40102;50.906;6.972;2024-03-22T05:15:23;11.32;;;5.88;;
54193;SDS011;40102;50.906;6.972;2024-03-22T05:17:52;11.80;;;6.35;;
54193;SDS011;40102;50.906;6.972;2024-03-22T05:20:18;11.35;;;6.53;;
54193;SDS011;40102;50.906;6.972;2024-03-22T05:22:43;13.32;;;6.43;;
54193;SDS011;40102;50.906;6.972;2024-03-22T05:25:09;12.63;;;5.60;;
54193;SDS011;40102;50.906;6.972;2024-03-22T05:27:35;10.27;;;5.60;;
54193;SDS011;40102;50.906;6.972;2024-03-22T05:30:01;12.52;;;5.90;;
54193;SDS011;40102;50.906;6.972;2024-03-22T05:32:26;10.15;;;5.45;;
54193;SDS011;40102;50.906;6.972;2024-03-22T05:34:52;8.82;;;5.45;;
54193;SDS011;40102;50.906;6.972;2024-03-22T05:37:18;11.27;;;5.45;;
54193;SDS011;40102;50.906;6.972;2024-03-22T05:39:43;9.90;;;5.40;;
54193;SDS011;40102;50.906;6.972;2024-03-22T05:42:09;10.60;;;5.70;;
54193;SDS011;40102;50.906;6.972;2024-03-22T05:44:34;10.75;;;5.65;;
54193;SDS011;40102;50.906;6.972;2024-03-22T05:47:00;9.90;;;5.60;;
54193;SDS011;40102;50.906;6.972;2024-03-22T05:49:25;9.40;;;4.95;;
54193;SDS011;40102;50.906;6.972;2024-03-22T05:51:51;7.97;;;4.72;;
54193;SDS011;40102;50.906;6.972;2024-03-22T05:54:16;9.68;;;5.18;;
54193;SDS011;40102;50.906;6.972;2024-03-22T05:56:41;8.73;;;5.53;;
54193;SDS011;40102;50.906;6.972;2024-03-22T05:59:07;9.20;;;5.18;;
54193;SDS011;40102;50.906;6.972;2024-03-22T06:01:32;8.50;;;4.95;;
54193;SDS011;40102;50.906;6.972;2024-03-22T06:03:58;9.85;;;5.60;;
54193;SDS011;40102;50.906;6.972;2024-03-22T06:06:23;8.27;;;5.13;;
54193;SDS011;40102;50.906;6.972;2024-03-22T06:08:50;10.98;;;5.70;;
54193;SDS011;40102;50.906;6.972;2024-03-22T06:11:17;9.70;;;5.35;;
54193;SDS011;40102;50.906;6.972;2024-03-22T06:13:43;9.95;;;6.10;;
54193;SDS011;40102;50.906;6.972;2024-03-22T06:16:09;11.75;;;6.10;;
54193;SDS011;40102;50.906;6.972;2024-03-22T06:18:34;10.05;;;5.95;;
54193;SDS011;40102;50.906;6.972;2024-03-22T06:20:59;12.35;;;6.25;;
54193;SDS011;40102;50.906;6.972;2024-03-22T06:23:25;10.20;;;5.90;;
54193;SDS011;40102;50.906;6.972;2024-03-22T06:25:53;10.10;;;5.43;;
54193;SDS011;40102;50.906;6.972;2024-03-22T06:28:20;9.40;;;5.85;;
54193;SDS011;40102;50.906;6.972;2024-03-22T06:30:45;8.20;;;4.95;;
54193;SDS011;40102;50.906;6.972;2024-03-22T06:33:11;8.63;;;4.82;;
54193;SDS011;40102;50.906;6.972;2024-03-22T06:35:36;7.18;;;4.97;;
54193;SDS011;40102;50.906;6.972;2024-03-22T06:38:02;10.05;;;5.50;;
54193;SDS011;40102;50.906;6.972;2024-03-22T06:40:28;8.13;;;4.50;;
54193;SDS011;40102;50.906;6.972;2024-03-22T06:42:53;8.00;;;4.10;;
54193;SDS011;40102;50.906;6.972;2024-03-22T06:45:19;10.77;;;5.18;;
54193;SDS011;40102;50.906;6.972;2024-03-22T06:47:44;7.55;;;4.47;;
54193;SDS011;40102;50.906;6.972;2024-03-22T06:50:10;7.53;;;4.07;;
54193;SDS011;40102;50.906;6.972;2024-03-22T06:52:36;6.88;;;3.60;;
54193;SDS011;40102;50.906;6.972;2024-03-22T06:55:02;7.40;;;3.80;;
54193;SDS011;40102;50.906;6.972;2024-03-22T06:57:28;7.25;;;3.65;;
54193;SDS011;40102;50.906;6.972;2024-03-22T06:59:53;6.80;;;4.25;;
54193;SDS011;40102;50.906;6.972;2024-03-22T07:02:19;6.25;;;3.88;;
54193;SDS011;40102;50.906;6.972;2024-03-22T07:04:45;7.97;;;4.22;;
54193;SDS011;40102;50.906;6.972;2024-03-22T07:07:10;6.15;;;3.70;;
54193;SDS011;40102;50.906;6.972;2024-03-22T07:09:36;6.55;;;3.97;;
54193;SDS011;40102;50.906;6.972;2024-03-22T07:12:01;6.40;;;3.80;;
54193;SDS011;40102;50.906;6.972;2024-03-22T07:14:27;7.03;;;3.70;;
54193;SDS011;40102;50.906;6.972;2024-03-22T07:16:52;6.10;;;3.33;;
54193;SDS011;40102;50.906;6.972;2024-03-22T07:19:21;6.63;;;3.55;;
54193;SDS011;40102;50.906;6.972;2024-03-22T07:21:47;5.68;;;3.50;;
54193;SDS011;40102;50.906;6.972;2024-03-22T07:24:13;11.23;;;5.53;;
54193;SDS011;40102;50.906;6.972;2024-03-22T07:26:38;12.15;;;6.18;;
54193;SDS011;40102;50.906;6.972;2024-03-22T07:29:04;11.68;;;6.28;;
54193;SDS011;40102;50.906;6.972;2024-03-22T07:31:29;10.13;;;6.32;;
54193;SDS011;40102;50.906;6.972;2024-03-22T07:33:55;15.30;;;7.07;;
54193;SDS011;40102;50.906;6.972;2024-03-22T07:36:20;14.48;;;7.10;;
54193;SDS011;40102;50.906;6.972;2024-03-22T07:38:46;13.23;;;7.55;;
54193;SDS011;40102;50.906;6.972;2024-03-22T07:41:11;13.75;;;7.57;;
54193;SDS011;40102;50.906;6.972;2024-03-22T07:43:37;16.55;;;7.20;;
54193;SDS011;40102;50.906;6.972;2024-03-22T07:46:02;11.07;;;6.60;;
54193;SDS011;40102;50.906;6.972;2024-03-22T07:48:28;15.25;;;6.70;;
54193;SDS011;40102;50.906;6.972;2024-03-22T07:50:57;12.10;;;6.57;;
54193;SDS011;40102;50.906;6.972;2024-03-22T07:53:23;14.15;;;7.53;;
54193;SDS011;40102;50.906;6.972;2024-03-22T07:55:48;10.93;;;6.28;;
54193;SDS011;40102;50.906;6.972;2024-03-22T07:58:13;14.65;;;7.20;;
54193;SDS011;40102;50.906;6.972;2024-03-22T08:00:39;16.35;;;8.15;;
54193;SDS011;40102;50.906;6.972;2024-03-22T08:03:04;16.17;;;8.43;;
54193;SDS011;40102;50.906;6.972;2024-03-22T08:05:29;15.32;;;7.85;;
54193;SDS011;40102;50.906;6.972;2024-03-22T08:07:55;13.95;;;7.55;;
54193;SDS011;40102;50.906;6.972;2024-03-22T08:10:20;19.42;;;8.15;;
54193;SDS011;40102;50.906;6.972;2024-03-22T08:12:46;15.00;;;7.60;;
54193;SDS011;40102;50.906;6.972;2024-03-22T08:15:11;13.48;;;7.55;;
54193;SDS011;40102;50.906;6.972;2024-03-22T08:17:37;13.20;;;6.63;;
54193;SDS011;40102;50.906;6.972;2024-03-22T08:20:02;14.27;;;7.18;;
54193;SDS011;40102;50.906;6.972;2024-03-22T08:22:28;13.95;;;7.32;;
54193;SDS011;40102;50.906;6.972;2024-03-22T08:24:53;14.55;;;6.95;;
54193;SDS011;40102;50.906;6.972;2024-03-22T08:27:21;13.85;;;6.80;;
54193;SDS011;40102;50.906;6.972;2024-03-22T08:29:46;10.77;;;6.35;;
54193;SDS011;40102;50.906;6.972;2024-03-22T08:32:11;14.18;;;7.45;;
54193;SDS011;40102;50.906;6.972;2024-03-22T08:34:37;16.60;;;8.05;;
54193;SDS011;40102;50.906;6.972;2024-03-22T08:37:02;13.40;;;7.60;;
54193;SDS011;40102;50.906;6.972;2024-03-22T08:39:29;17.20;;;8.18;;
54193;SDS011;40102;50.906;6.972;2024-03-22T08:41:55;16.45;;;7.63;;
54193;SDS011;40102;50.906;6.972;2024-03-22T08:44:20;14.85;;;7.35;;
54193;SDS011;40102;50.906;6.972;2024-03-22T08:46:46;13.02;;;6.80;;
54193;SDS011;40102;50.906;6.972;2024-03-22T08:49:12;13.68;;;7.25;;
54193;SDS011;40102;50.906;6.972;2024-03-22T08:51:38;14.65;;;8.15;;
54193;SDS011;40102;50.906;6.972;2024-03-22T08:54:03;16.35;;;9.02;;
54193;SDS011;40102;50.906;6.972;2024-03-22T08:56:29;18.80;;;8.88;;
54193;SDS011;40102;50.906;6.972;2024-03-22T08:58:55;15.43;;;8.40;;
54193;SDS011;40102;50.906;6.972;2024-03-22T09:01:20;17.05;;;8.52;;
54193;SDS011;40102;50.906;6.972;2024-03-22T09:03:47;15.95;;;7.82;;
54193;SDS011;40102;50.906;6.972;2024-03-22T09:06:14;13.68;;;8.10;;
54193;SDS011;40102;50.906;6.972;2024-03-22T09:08:40;15.70;;;7.85;;
54193;SDS011;40102;50.906;6.972;2024-03-22T09:11:05;17.67;;;8.55;;
54193;SDS011;40102;50.906;6.972;2024-03-22T09:13:31;16.15;;;8.05;;
54193;SDS011;40102;50.906;6.972;2024-03-22T09:15:57;15.25;;;7.95;;
54193;SDS011;40102;50.906;6.972;2024-03-22T09:18:23;13.85;;;7.82;;
54193;SDS011;40102;50.906;6.972;2024-03-22T09:20:49;12.57;;;7.60;;
54193;SDS011;40102;50.906;6.972;2024-03-22T09:23:14;13.23;;;6.95;;
54193;SDS011;40102;50.906;6.972;2024-03-22T09:25:40;13.38;;;6.78;;
54193;SDS011;40102;50.906;6.972;2024-03-22T09:28:05;15.90;;;6.47;;
54193;SDS011;40102;50.906;6.972;2024-03-22T09:30:31;12.10;;;6.47;;
54193;SDS011;40102;50.906;6.972;2024-03-22T09:32:56;11.18;;;5.60;;
54193;SDS011;40102;50.906;6.972;2024-03-22T09:35:22;8.75;;;4.68;;
54193;SDS011;40102;50.906;6.972;2024-03-22T09:37:48;8.27;;;4.40;;
54193;SDS011;40102;50.906;6.972;2024-03-22T09:40:13;8.73;;;4.88;;
54193;SDS011;40102;50.906;6.972;2024-03-22T09:42:39;7.45;;;3.85;;
54193;SDS011;40102;50.906;6.972;2024-03-22T09:45:10;7.38;;;3.90;;
54193;SDS011;40102;50.906;6.972;2024-03-22T09:47:36;7.10;;;4.18;;
54193;SDS011;40102;50.906;6.972;2024-03-22T09:50:03;7.30;;;3.92;;
54193;SDS011;40102;50.906;6.972;2024-03-22T09:52:31;9.32;;;4.07;;
54193;SDS011;40102;50.906;6.972;2024-03-22T09:54:58;9.15;;;4.30;;
54193;SDS011;40102;50.906;6.972;2024-03-22T09:57:23;7.32;;;4.32;;
54193;SDS011;40102;50.906;6.972;2024-03-22T09:59:49;8.82;;;3.88;;
54193;SDS011;40102;50.906;6.972;2024-03-22T10:02:15;7.50;;;4.07;;
54193;SDS011;40102;50.906;6.972;2024-03-22T10:04:41;13.30;;;4.38;;
54193;SDS011;40102;50.906;6.972;2024-03-22T10:07:07;9.25;;;4.13;;
54193;SDS011;40102;50.906;6.972;2024-03-22T10:09:36;9.40;;;3.78;;
54193;SDS011;40102;50.906;6.972;2024-03-22T10:12:02;10.40;;;4.05;;
54193;SDS011;40102;50.906;6.972;2024-03-22T10:14:28;7.20;;;4.15;;
54193;SDS011;40102;50.906;6.972;2024-03-22T10:16:54;9.38;;;4.07;;
54193;SDS011;40102;50.906;6.972;2024-03-22T10:19:20;9.15;;;3.88;;
54193;SDS011;40102;50.906;6.972;2024-03-22T10:21:47;7.25;;;3.78;;
54193;SDS011;40102;50.906;6.972;2024-03-22T10:24:13;7.68;;;4.53;;
54193;SDS011;40102;50.906;6.972;2024-03-22T10:26:39;7.53;;;3.75;;
54193;SDS011;40102;50.906;6.972;2024-03-22T10:29:08;8.18;;;3.55;;
54193;SDS011;40102;50.906;6.972;2024-03-22T10:31:34;8.55;;;4.25;;
54193;SDS011;40102;50.906;6.972;2024-03-22T10:34:01;6.03;;;3.50;;
54193;SDS011;40102;50.906;6.972;2024-03-22T10:36:29;7.40;;;3.83;;
54193;SDS011;40102;50.906;6.972;2024-03-22T10:38:56;6.32;;;3.83;;
54193;SDS011;40102;50.906;6.972;2024-03-22T10:41:23;10.15;;;4.45;;
54193;SDS011;40102;50.906;6.972;2024-03-22T10:43:49;7.75;;;4.40;;
54193;SDS011;40102;50.906;6.972;2024-03-22T10:46:14;6.85;;;3.63;;
54193;SDS011;40102;50.906;6.972;2024-03-22T10:48:44;9.48;;;3.90;;
54193;SDS011;40102;50.906;6.972;2024-03-22T10:51:10;6.20;;;3.30;;
54193;SDS011;40102;50.906;6.972;2024-03-22T10:53:36;8.40;;;3.40;;
54193;SDS011;40102;50.906;6.972;2024-03-22T10:56:03;7.43;;;3.88;;
54193;SDS011;40102;50.906;6.972;2024-03-22T10:58:29;6.40;;;3.75;;
54193;SDS011;40102;50.906;6.972;2024-03-22T11:00:56;14.77;;;5.03;;
54193;SDS011;40102;50.906;6.972;2024-03-22T11:03:22;7.40;;;3.55;;
54193;SDS011;40102;50.906;6.972;2024-03-22T11:05:49;6.72;;;3.78;;
54193;SDS011;40102;50.906;6.972;2024-03-22T11:08:24;8.48;;;4.10;;
54193;SDS011;40102;50.906;6.972;2024-03-22T11:13:17;7.93;;;3.60;;
54193;SDS011;40102;50.906;6.972;2024-03-22T11:15:43;8.35;;;4.00;;
54193;SDS011;40102;50.906;6.972;2024-03-22T11:18:08;7.30;;;3.42;;
54193;SDS011;40102;50.906;6.972;2024-03-22T11:20:37;10.30;;;4.32;;
54193;SDS011;40102;50.906;6.972;2024-03-22T11:23:05;9.57;;;3.95;;
54193;SDS011;40102;50.906;6.972;2024-03-22T11:25:32;8.88;;;4.70;;
54193;SDS011;40102;50.906;6.972;2024-03-22T11:27:58;10.25;;;4.70;;
54193;SDS011;40102;50.906;6.972;2024-03-22T11:30:25;8.05;;;4.45;;
54193;SDS011;40102;50.906;6.972;2024-03-22T11:32:52;9.70;;;5.40;;
54193;SDS011;40102;50.906;6.972;2024-03-22T11:35:17;6.40;;;3.90;;
54193;SDS011;40102;50.906;6.972;2024-03-22T11:37:43;8.60;;;5.32;;
54193;SDS011;40102;50.906;6.972;2024-03-22T11:40:08;9.27;;;5.68;;
54193;SDS011;40102;50.906;6.972;2024-03-22T11:42:35;11.98;;;5.50;;
54193;SDS011;40102;50.906;6.972;2024-03-22T11:45:05;9.23;;;4.78;;
54193;SDS011;40102;50.906;6.972;2024-03-22T11:47:34;8.32;;;4.78;;
54193;SDS011;40102;50.906;6.972;2024-03-22T11:50:01;10.02;;;4.70;;
54193;SDS011;40102;50.906;6.972;2024-03-22T11:52:26;8.18;;;4.35;;
54193;SDS011;40102;50.906;6.972;2024-03-22T11:54:52;8.73;;;4.82;;
54193;SDS011;40102;50.906;6.972;2024-03-22T11:57:18;11.98;;;6.32;;
54193;SDS011;40102;50.906;6.972;2024-03-22T11:59:45;8.35;;;4.88;;
54193;SDS011;40102;50.906;6.972;2024-03-22T12:02:11;8.90;;;5.22;;
54193;SDS011;40102;50.906;6.972;2024-03-22T12:04:40;7.70;;;4.80;;
54193;SDS011;40102;50.906;6.972;2024-03-22T12:07:08;11.48;;;5.97;;
54193;SDS011;40102;50.906;6.972;2024-03-22T12:09:35;10.93;;;6.10;;
54193;SDS011;40102;50.906;6.972;2024-03-22T12:12:00;9.57;;;4.88;;
54193;SDS011;40102;50.906;6.972;2024-03-22T12:14:26;10.25;;;5.80;;
54193;SDS011;40102;50.906;6.972;2024-03-22T12:16:54;9.90;;;5.65;;
54193;SDS011;40102;50.906;6.972;2024-03-22T12:19:19;11.32;;;5.50;;
54193;SDS011;40102;50.906;6.972;2024-03-22T12:21:45;11.15;;;5.80;;
54193;SDS011;40102;50.906;6.972;2024-03-22T12:24:10;8.20;;;5.40;;
54193;SDS011;40102;50.906;6.972;2024-03-22T12:26:35;10.45;;;5.53;;
54193;SDS011;40102;50.906;6.972;2024-03-22T12:29:01;9.00;;;4.97;;
54193;SDS011;40102;50.906;6.972;2024-03-22T12:31:26;9.88;;;5.20;;
54193;SDS011;40102;50.906;6.972;2024-03-22T12:33:52;12.43;;;5.85;;
54193;SDS011;40102;50.906;6.972;2024-03-22T12:36:17;8.50;;;5.28;;
54193;SDS011;40102;50.906;6.972;2024-03-22T12:38:42;9.43;;;5.05;;
54193;SDS011;40102;50.906;6.972;2024-03-22T12:41:08;10.38;;;5.18;;
54193;SDS011;40102;50.906;6.972;2024-03-22T12:43:34;9.88;;;5.43;;
54193;SDS011;40102;50.906;6.972;2024-03-22T12:45:59;10.27;;;5.57;;
54193;SDS011;40102;50.906;6.972;2024-03-22T12:48:25;12.25;;;5.45;;
54193;SDS011;40102;50.906;6.972;2024-03-22T12:50:50;9.60;;;5.05;;
54193;SDS011;40102;50.906;6.972;2024-03-22T12:53:16;10.48;;;5.45;;
54193;SDS011;40102;50.906;6.972;2024-03-22T12:55:41;11.98;;;5.93;;
54193;SDS011;40102;50.906;6.972;2024-03-22T12:58:07;11.85;;;5.90;;
54193;SDS011;40102;50.906;6.972;2024-03-22T13:00:32;9.25;;;4.90;;
54193;SDS011;40102;50.906;6.972;2024-03-22T13:02:58;10.75;;;4.82;;
54193;SDS011;40102;50.906;6.972;2024-03-22T13:05:25;9.27;;;5.03;;
54193;SDS011;40102;50.906;6.972;2024-03-22T13:07:51;8.50;;;4.70;;
54193;SDS011;40102;50.906;6.972;2024-03-22T13:10:16;10.60;;;5.20;;
54193;SDS011;40102;50.906;6.972;2024-03-22T13:12:42;8.32;;;5.20;;
54193;SDS011;40102;50.906;6.972;2024-03-22T13:15:07;10.07;;;5.03;;
54193;SDS011;40102;50.906;6.972;2024-03-22T13:17:33;10.07;;;5.40;;
54193;SDS011;40102;50.906;6.972;2024-03-22T13:19:58;9.02;;;4.88;;
54193;SDS011;40102;50.906;6.972;2024-03-22T13:22:24;8.80;;;4.88;;
54193;SDS011;40102;50.906;6.972;2024-03-22T13:24:50;9.48;;;4.57;;
54193;SDS011;40102;50.906;6.972;2024-03-22T13:27:16;10.35;;;5.05;;
54193;SDS011;40102;50.906;6.972;2024-03-22T13:29:41;7.95;;;4.53;;
54193;SDS011;40102;50.906;6.972;2024-03-22T13:32:07;9.25;;;5.15;;
54193;SDS011;40102;50.906;6.972;2024-03-22T13:34:36;9.05;;;4.22;;
54193;SDS011;40102;50.906;6.972;2024-03-22T13:37:02;11.75;;;5.07;;
54193;SDS011;40102;50.906;6.972;2024-03-22T13:39:28;9.50;;;5.07;;
54193;SDS011;40102;50.906;6.972;2024-03-22T13:41:54;8.45;;;4.93;;
54193;SDS011;40102;50.906;6.972;2024-03-22T13:44:23;10.45;;;5.05;;
54193;SDS011;40102;50.906;6.972;2024-03-22T13:46:49;7.55;;;4.05;;
54193;SDS011;40102;50.906;6.972;2024-03-22T13:49:16;8.23;;;4.57;;
54193;SDS011;40102;50.906;6.972;2024-03-22T13:51:43;8.20;;;5.10;;
54193;SDS011;40102;50.906;6.972;2024-03-22T13:54:09;7.05;;;4.65;;
54193;SDS011;40102;50.906;6.972;2024-03-22T13:56:38;10.98;;;5.78;;
54193;SDS011;40102;50.906;6.972;2024-03-22T13:59:03;8.35;;;5.05;;
54193;SDS011;40102;50.906;6.972;2024-03-22T14:01:35;7.22;;;4.28;;
54193;SDS011;40102;50.906;6.972;2024-03-22T14:04:02;9.43;;;5.22;;
54193;SDS011;40102;50.906;6.972;2024-03-22T14:06:29;10.52;;;5.88;;
54193;SDS011;40102;50.906;6.972;2024-03-22T14:08:55;9.13;;;5.47;;
54193;SDS011;40102;50.906;6.972;2024-03-22T14:11:25;11.52;;;5.22;;
54193;SDS011;40102;50.906;6.972;2024-03-22T14:13:51;13.27;;;5.63;;
54193;SDS011;40102;50.906;6.972;2024-03-22T14:16:17;9.15;;;5.75;;
54193;SDS011;40102;50.906;6.972;2024-03-22T14:18:43;9.57;;;5.55;;
54193;SDS011;40102;50.906;6.972;2024-03-22T14:21:08;8.98;;;5.55;;
54193;SDS011;40102;50.906;6.972;2024-03-22T14:23:33;11.07;;;5.93;;
54193;SDS011;40102;50.906;6.972;2024-03-22T14:25:59;10.80;;;5.88;;
54193;SDS011;40102;50.906;6.972;2024-03-22T14:28:27;9.95;;;5.95;;
54193;SDS011;40102;50.906;6.972;2024-03-22T14:30:53;15.25;;;6.68;;
54193;SDS011;40102;50.906;6.972;2024-03-22T14:33:18;9.65;;;5.00;;